Time;durP1;ratioP1;P1;durP2;ratioP2;P2;SDS_P1;SDS_P2;PMS_P1;PMS_P2;Temp;Humidity;BMP_temperature;BMP_pressure;BME280_temperature;BME280_humidity;BME280_pressure;Samples;Min_cycle;Max_cycle;Signal;HPM_P1;HPM_P2
2022/09/10 00:00:57;;;;;;;14.70;5.15;;;;;;;15.00;100.00;100744.59;5071850;28;20102;-70
2022/09/10 00:03:23;;;;;;;12.57;4.65;;;;;;;15.03;100.00;100749.03;5082367;28;20475;-69
2022/09/10 00:05:49;;;;;;;11.57;5.10;;;;;;;15.07;100.00;100748.13;5079303;28;20039;-70
2022/09/10 00:08:16;;;;;;;8.80;5.55;;;;;;;15.11;100.00;100749.88;5067054;28;20502;-70
2022/09/10 00:10:46;;;;;;;15.55;6.68;;;;;;;15.11;100.00;100749.88;5075555;28;20116;-70
2022/09/10 00:13:17;;;;;;;13.88;6.75;;;;;;;15.12;100.00;100756.91;5072126;28;20444;-70
2022/09/10 00:15:48;;;;;;;16.75;6.60;;;;;;;15.13;100.00;100757.81;5085587;28;20111;-71
2022/09/10 00:18:16;;;;;;;14.63;7.30;;;;;;;15.12;100.00;100746.31;5068320;28;20436;-70
2022/09/10 00:20:49;;;;;;;14.88;6.78;;;;;;;15.13;100.00;100732.19;5063139;28;20031;-71
2022/09/10 00:23:15;;;;;;;10.75;6.13;;;;;;;15.12;100.00;100742.78;5072884;28;20052;-71
2022/09/10 00:25:41;;;;;;;13.15;6.68;;;;;;;15.09;100.00;100730.44;5074361;28;20024;-71
2022/09/10 00:28:07;;;;;;;13.40;6.60;;;;;;;15.09;100.00;100734.84;5072465;28;20021;-71
2022/09/10 00:30:38;;;;;;;12.60;6.38;;;;;;;15.06;100.00;100725.16;5075279;28;20364;-71
2022/09/10 00:33:04;;;;;;;12.70;5.53;;;;;;;15.05;100.00;100728.69;5072683;28;20531;-71
2022/09/10 00:35:34;;;;;;;11.05;5.15;;;;;;;15.03;100.00;100718.97;5077567;28;20108;-71
2022/09/10 00:38:00;;;;;;;12.65;4.90;;;;;;;15.01;100.00;100721.63;5072520;28;20025;-71
2022/09/10 00:40:26;;;;;;;13.98;4.70;;;;;;;14.97;100.00;100725.19;5078885;28;20464;-71
2022/09/10 00:42:51;;;;;;;8.82;5.70;;;;;;;14.96;100.00;100724.31;5072246;28;20111;-72
2022/09/10 00:45:26;;;;;;;10.73;4.53;;;;;;;14.92;100.00;100726.94;5076618;28;20031;-71
2022/09/10 00:47:55;;;;;;;8.98;4.45;;;;;;;14.90;100.00;100718.16;5077271;28;20093;-71
2022/09/10 00:50:25;;;;;;;9.68;4.43;;;;;;;14.90;100.00;100731.41;5089322;28;20036;-72
2022/09/10 00:52:54;;;;;;;10.93;4.97;;;;;;;14.89;100.00;100726.97;5073964;28;20047;-71
2022/09/10 00:55:20;;;;;;;11.10;4.85;;;;;;;14.88;100.00;100725.19;5076059;28;20037;-72
2022/09/10 00:57:49;;;;;;;7.85;4.47;;;;;;;14.89;100.00;100722.53;5075777;28;20499;-71
2022/09/10 01:00:15;;;;;;;10.32;5.15;;;;;;;14.90;100.00;100723.44;5093930;28;20032;-72
2022/09/10 01:02:41;;;;;;;10.32;4.93;;;;;;;14.90;100.00;100720.78;5079752;28;20123;-71
2022/09/10 01:05:08;;;;;;;13.88;6.15;;;;;;;14.89;100.00;100716.38;5081351;28;20027;-72
2022/09/10 01:07:34;;;;;;;8.68;5.43;;;;;;;14.87;100.00;100705.78;5084408;28;20085;-71
2022/09/10 01:10:03;;;;;;;14.18;6.85;;;;;;;14.88;100.00;100701.34;5095416;28;20032;-70
2022/09/10 01:13:12;;;;;;;19.30;7.40;;;;;;;14.89;100.00;100704.00;5075276;28;20032;-71
2022/09/10 01:15:47;;;;;;;17.58;7.05;;;;;;;14.90;100.00;100710.19;5073019;28;20043;-71
2022/09/10 01:18:29;;;;;;;17.83;7.75;;;;;;;14.91;100.00;100711.97;5087769;28;20032;-71
2022/09/10 01:21:07;;;;;;;16.60;7.95;;;;;;;14.91;100.00;100709.31;5084089;28;20024;-72
2022/09/10 01:24:09;;;;;;;19.02;7.75;;;;;;;14.92;100.00;100716.34;5075824;28;20032;-72
2022/09/10 01:26:53;;;;;;;13.82;6.85;;;;;;;14.89;100.00;100708.44;5072110;28;20054;-71
2022/09/10 01:29:31;;;;;;;15.13;7.38;;;;;;;14.87;100.00;100704.88;5074384;28;20040;-72
2022/09/10 01:32:25;;;;;;;13.77;7.13;;;;;;;14.84;100.00;100709.31;5076465;28;20040;-70
2022/09/10 01:35:04;;;;;;;15.50;7.65;;;;;;;14.84;100.00;100709.31;5069219;28;20074;-72
2022/09/10 01:37:32;;;;;;;14.93;7.10;;;;;;;14.84;100.00;100709.31;5075413;28;20476;-72
2022/09/10 01:39:59;;;;;;;14.57;7.13;;;;;;;14.88;100.00;100704.00;5080852;28;20384;-72
2022/09/10 01:42:26;;;;;;;15.45;6.38;;;;;;;14.87;100.00;100703.13;5075060;28;20029;-72
2022/09/10 01:44:55;;;;;;;12.77;6.90;;;;;;;14.88;100.00;100709.31;5074662;28;20392;-72
2022/09/10 01:47:39;;;;;;;15.82;6.75;;;;;;;14.89;100.00;100706.66;5073682;28;20024;-71
2022/09/10 01:50:05;;;;;;;;;;;;;;;14.89;100.00;100697.84;5092559;28;20529;-72
2022/09/10 01:52:57;;;;;;;17.30;7.22;;;;;;;14.91;100.00;100704.03;5075470;28;19912;-71
2022/09/10 01:55:31;;;;;;;13.77;6.38;;;;;;;14.91;100.00;100701.38;5083482;28;20539;-71
2022/09/10 01:58:08;;;;;;;16.80;5.88;;;;;;;14.93;100.00;100711.03;5073916;28;20078;-69
2022/09/10 02:00:37;;;;;;;21.42;6.68;;;;;;;14.93;100.00;100707.53;5083168;28;20107;-70
2022/09/10 02:03:15;;;;;;;11.43;5.40;;;;;;;14.96;100.00;100710.16;5073684;28;20387;-71
2022/09/10 02:05:43;;;;;;;20.55;5.53;;;;;;;14.98;100.00;100716.34;5086248;28;20024;-71
2022/09/10 02:08:15;;;;;;;13.88;4.20;;;;;;;14.98;100.00;100711.91;5075575;28;20515;-69
2022/09/10 02:10:54;;;;;;;15.25;4.57;;;;;;;15.01;100.00;100716.31;5073820;28;20024;-71
2022/09/10 02:13:22;;;;;;;12.00;4.07;;;;;;;15.00;100.00;100707.50;5076682;28;20032;-70
2022/09/10 02:15:50;;;;;;;15.18;4.68;;;;;;;15.01;100.00;100700.44;5077612;28;20170;-71
2022/09/10 02:18:18;;;;;;;13.68;4.72;;;;;;;15.03;100.00;100703.06;5071518;28;20061;-70
2022/09/10 02:20:44;;;;;;;14.07;5.03;;;;;;;15.02;100.00;100702.19;5084814;28;20055;-70
2022/09/10 02:23:11;;;;;;;11.60;5.03;;;;;;;15.04;100.00;100704.84;5075073;28;20035;-70
2022/09/10 02:25:36;;;;;;;18.23;5.88;;;;;;;15.05;100.00;100696.88;5079852;28;20024;-69
2022/09/10 02:28:03;;;;;;;16.38;5.97;;;;;;;15.05;100.00;100696.00;5074622;28;20027;-69
2022/09/10 02:30:29;;;;;;;13.73;5.40;;;;;;;15.07;100.00;100697.78;5079479;28;20031;-69
2022/09/10 02:32:54;;;;;;;17.52;6.97;;;;;;;15.07;100.00;100684.53;5074693;28;20094;-69
2022/09/10 02:35:20;;;;;;;15.68;7.03;;;;;;;15.09;100.00;100688.03;5061402;28;20031;-69
2022/09/10 02:37:45;;;;;;;14.88;6.72;;;;;;;15.10;100.00;100687.16;5086120;28;20085;-70
2022/09/10 02:40:11;;;;;;;18.42;7.57;;;;;;;15.10;100.00;100684.50;5087546;28;20026;-68
2022/09/10 02:42:37;;;;;;;13.45;7.22;;;;;;;15.10;100.00;100684.50;5074110;28;20032;-69
2022/09/10 02:45:03;;;;;;;17.25;7.95;;;;;;;15.10;100.00;100684.50;5077816;28;20468;-68
2022/09/10 02:47:29;;;;;;;18.98;8.55;;;;;;;15.11;100.00;100690.66;5074010;28;20436;-69
2022/09/10 02:49:54;;;;;;;21.75;8.40;;;;;;;15.12;100.00;100682.69;5080310;28;20099;-69
2022/09/10 02:52:20;;;;;;;23.95;9.32;;;;;;;15.11;100.00;100686.25;5085910;28;20141;-69
2022/09/10 02:54:46;;;;;;;23.45;9.65;;;;;;;15.13;100.00;100695.06;5082080;28;20026;-70
2022/09/10 02:57:11;;;;;;;32.30;11.70;;;;;;;15.12;100.00;100693.31;5073919;28;20111;-70
2022/09/10 02:59:36;;;;;;;23.83;10.52;;;;;;;15.15;100.00;100698.63;5079028;28;20437;-68
2022/09/10 03:02:02;;;;;;;27.98;9.70;;;;;;;15.17;100.00;100696.81;5072695;28;20078;-71
2022/09/10 03:04:27;;;;;;;28.88;11.65;;;;;;;15.15;100.00;100690.66;5081736;28;20016;-69
2022/09/10 03:06:53;;;;;;;22.48;10.50;;;;;;;15.17;100.00;100688.88;5073479;28;20072;-70
2022/09/10 03:09:19;;;;;;;26.83;11.00;;;;;;;15.15;100.00;100681.81;5071317;28;20043;-69
2022/09/10 03:11:45;;;;;;;27.00;10.35;;;;;;;15.14;100.00;100691.53;5076952;28;20024;-70
2022/09/10 03:14:11;;;;;;;21.55;11.48;;;;;;;15.12;100.00;100687.13;5073362;28;20020;-70
2022/09/10 03:16:38;;;;;;;24.75;9.55;;;;;;;15.10;100.00;100676.53;5073093;28;20036;-69
2022/09/10 03:19:04;;;;;;;18.88;8.80;;;;;;;15.09;100.00;100674.78;5073068;28;20376;-70
2022/09/10 03:21:29;;;;;;;23.05;9.35;;;;;;;15.09;100.00;100688.03;5073406;28;20024;-69
2022/09/10 03:23:55;;;;;;;20.33;8.50;;;;;;;15.10;100.00;100686.28;5079563;28;20427;-70
2022/09/10 03:26:21;;;;;;;23.45;8.90;;;;;;;15.07;100.00;100687.16;5078462;28;20830;-70
2022/09/10 03:28:47;;;;;;;26.95;9.57;;;;;;;15.06;100.00;100690.69;5054031;28;20388;-68
2022/09/10 03:31:13;;;;;;;23.00;9.77;;;;;;;15.04;100.00;100692.47;5074583;28;20036;-69
2022/09/10 03:33:42;;;;;;;29.83;10.15;;;;;;;15.03;100.00;100695.13;5059780;28;20056;-69
2022/09/10 03:36:09;;;;;;;18.92;9.10;;;;;;;15.03;100.00;100690.72;5075825;28;20035;-69
2022/09/10 03:38:35;;;;;;;28.35;9.82;;;;;;;15.01;100.00;100690.69;5073555;28;20032;-70
2022/09/10 03:41:01;;;;;;;26.42;9.95;;;;;;;14.98;100.00;100684.56;5083200;28;20025;-69
2022/09/10 03:43:27;;;;;;;29.10;9.75;;;;;;;14.99;100.00;100691.63;5072056;28;20069;-69
2022/09/10 03:45:53;;;;;;;23.75;9.45;;;;;;;14.97;100.00;100690.72;5077687;28;20477;-70
2022/09/10 03:48:19;;;;;;;25.02;9.13;;;;;;;14.97;100.00;100685.44;5073330;28;20020;-69
2022/09/10 03:50:45;;;;;;;27.92;9.48;;;;;;;14.96;100.00;100678.38;5055272;28;20028;-69
2022/09/10 03:53:15;;;;;;;25.42;10.52;;;;;;;14.96;100.00;100686.31;5074467;28;20450;-70
2022/09/10 03:55:48;;;;;;;20.15;10.60;;;;;;;14.97;100.00;100683.66;5085147;28;20561;-69
2022/09/10 03:58:14;;;;;;;25.08;10.18;;;;;;;14.99;100.00;100686.31;5072230;28;20020;-70
2022/09/10 04:00:39;;;;;;;23.75;9.73;;;;;;;14.99;100.00;100688.97;5072071;28;20104;-70
2022/09/10 04:03:05;;;;;;;20.92;9.63;;;;;;;15.00;100.00;100693.34;5084433;28;20169;-69
2022/09/10 04:05:31;;;;;;;26.75;10.50;;;;;;;15.00;100.00;100685.41;5082863;28;20054;-70
2022/09/10 04:07:57;;;;;;;29.98;10.55;;;;;;;15.01;100.00;100690.69;5071948;28;20044;-71
2022/09/10 04:10:26;;;;;;;28.67;11.05;;;;;;;15.04;100.00;100692.47;5085439;28;20062;-70
2022/09/10 04:12:55;;;;;;;24.13;10.20;;;;;;;15.08;100.00;100690.69;5087651;28;20024;-70
2022/09/10 04:15:22;;;;;;;30.40;12.60;;;;;;;15.09;100.00;100692.47;5074569;28;20093;-70
2022/09/10 04:17:51;;;;;;;22.52;11.90;;;;;;;15.08;100.00;100696.84;5072858;28;20058;-70
2022/09/10 04:20:20;;;;;;;35.25;12.13;;;;;;;15.08;100.00;100691.56;5072702;28;20115;-69
2022/09/10 04:22:46;;;;;;;29.58;12.27;;;;;;;15.08;100.00;100694.22;5072805;28;20036;-70
2022/09/10 04:25:11;;;;;;;30.85;12.10;;;;;;;15.08;100.00;100696.84;5084440;28;20035;-69
2022/09/10 04:27:37;;;;;;;33.20;11.98;;;;;;;15.10;100.00;100696.88;5077222;28;20029;-69
2022/09/10 04:30:03;;;;;;;23.27;10.40;;;;;;;15.09;100.00;100698.63;5073914;28;20032;-70
2022/09/10 04:32:29;;;;;;;32.10;11.10;;;;;;;15.09;100.00;100703.06;5076118;28;20103;-69
2022/09/10 04:34:54;;;;;;;25.48;12.05;;;;;;;15.07;100.00;100700.41;5075829;28;20166;-69
2022/09/10 04:37:20;;;;;;;34.15;12.57;;;;;;;15.07;100.00;100704.81;5072204;28;20471;-70
2022/09/10 04:39:45;;;;;;;26.42;11.50;;;;;;;15.05;100.00;100702.19;5072722;28;20030;-70
2022/09/10 04:42:13;;;;;;;25.35;11.05;;;;;;;15.04;100.00;100705.72;5075137;28;20368;-70
2022/09/10 04:44:39;;;;;;;31.13;11.30;;;;;;;15.04;100.00;100715.44;5070719;28;20040;-70
2022/09/10 04:47:05;;;;;;;30.65;12.43;;;;;;;15.01;100.00;100711.03;5074336;28;20020;-70
2022/09/10 04:49:30;;;;;;;28.95;12.60;;;;;;;14.98;100.00;100711.91;5075144;28;20033;-69
2022/09/10 04:51:55;;;;;;;29.33;12.57;;;;;;;14.97;100.00;100719.88;5083474;28;20024;-69
2022/09/10 04:54:21;;;;;;;29.75;12.18;;;;;;;14.95;100.00;100716.38;5081765;28;20032;-70
2022/09/10 04:56:46;;;;;;;32.88;13.07;;;;;;;14.97;100.00;100719.88;5074090;28;20418;-70
2022/09/10 04:59:12;;;;;;;31.00;12.77;;;;;;;14.96;100.00;100719.00;5079471;28;20024;-69
2022/09/10 05:01:37;;;;;;;32.90;14.23;;;;;;;14.97;100.00;100719.88;5078455;28;20066;-69
2022/09/10 05:04:03;;;;;;;35.50;14.38;;;;;;;14.97;100.00;100717.22;5085338;28;20035;-70
2022/09/10 05:06:28;;;;;;;41.95;13.50;;;;;;;14.97;100.00;100715.44;5071053;28;20040;-70
2022/09/10 05:08:54;;;;;;;32.47;13.05;;;;;;;14.97;100.00;100726.03;5078003;28;20380;-70
2022/09/10 05:11:20;;;;;;;29.27;12.80;;;;;;;14.99;100.00;100734.88;5079401;28;20060;-70
2022/09/10 05:13:46;;;;;;;31.02;14.00;;;;;;;14.98;100.00;100724.28;5072090;28;20388;-70
2022/09/10 05:16:12;;;;;;;39.33;14.10;;;;;;;15.00;100.00;100735.75;5070004;28;20043;-70
2022/09/10 05:18:38;;;;;;;25.17;13.75;;;;;;;15.00;100.00;100733.09;5082295;28;20099;-70
2022/09/10 05:21:04;;;;;;;38.08;13.98;;;;;;;15.02;100.00;100728.69;5080228;28;20372;-70
2022/09/10 05:23:30;;;;;;;37.10;14.13;;;;;;;15.02;100.00;100728.69;5085352;28;20067;-70
2022/09/10 05:25:55;;;;;;;38.42;14.30;;;;;;;15.00;100.00;100736.66;5072943;28;20063;-70
2022/09/10 05:28:21;;;;;;;41.63;13.63;;;;;;;15.03;100.00;100734.88;5069729;28;20112;-70
2022/09/10 05:30:46;;;;;;;35.30;15.05;;;;;;;15.03;100.00;100737.50;5076439;28;20025;-71
2022/09/10 05:33:12;;;;;;;38.33;14.48;;;;;;;15.04;100.00;100739.28;5073418;28;20548;-70
2022/09/10 05:35:37;;;;;;;44.17;15.77;;;;;;;15.05;100.00;100741.94;5073741;28;20021;-70
2022/09/10 05:38:02;;;;;;;33.72;14.65;;;;;;;15.07;100.00;100742.81;5075423;28;20020;-69
2022/09/10 05:40:28;;;;;;;35.08;14.10;;;;;;;15.10;100.00;100745.44;5075020;28;20472;-69
2022/09/10 05:42:54;;;;;;;37.42;14.52;;;;;;;15.13;100.00;100744.56;5077303;28;20024;-69
2022/09/10 05:45:20;;;;;;;38.63;15.13;;;;;;;15.15;100.00;100751.63;5075908;28;20048;-69
2022/09/10 05:47:46;;;;;;;42.10;15.23;;;;;;;15.18;100.00;100748.94;5075417;28;20033;-71
2022/09/10 05:50:11;;;;;;;38.95;14.38;;;;;;;15.22;100.00;100762.19;5075524;28;20017;-70
2022/09/10 05:52:36;;;;;;;41.45;15.38;;;;;;;15.24;100.00;100747.16;5077040;28;20030;-69
2022/09/10 05:55:02;;;;;;;41.75;14.77;;;;;;;15.29;100.00;100758.63;5075200;28;20041;-69
2022/09/10 05:57:28;;;;;;;38.85;14.90;;;;;;;15.33;100.00;100755.94;5074906;28;20035;-69
2022/09/10 05:59:53;;;;;;;37.95;13.95;;;;;;;15.39;100.00;100754.16;5083121;28;20107;-70
2022/09/10 06:02:19;;;;;;;31.05;14.10;;;;;;;15.46;100.00;100762.09;5083111;28;20056;-69
2022/09/10 06:04:44;;;;;;;39.58;14.20;;;;;;;15.55;100.00;100760.28;5075086;28;20033;-70
2022/09/10 06:07:10;;;;;;;33.75;13.85;;;;;;;15.63;100.00;100758.47;5072691;28;20623;-69
2022/09/10 06:09:36;;;;;;;37.30;13.95;;;;;;;15.67;100.00;100766.38;5078848;28;20051;-70
2022/09/10 06:12:02;;;;;;;41.45;12.80;;;;;;;15.70;100.00;100760.19;5077573;28;20103;-70
2022/09/10 06:14:27;;;;;;;26.63;10.95;;;;;;;15.75;100.00;100753.09;5074577;28;20032;-70
2022/09/10 06:16:54;;;;;;;27.95;11.15;;;;;;;15.77;100.00;100761.91;5077489;28;20428;-70
2022/09/10 06:19:22;;;;;;;24.10;9.38;;;;;;;15.80;100.00;100753.97;5074879;28;20199;-70
2022/09/10 06:21:51;;;;;;;19.17;7.90;;;;;;;15.84;100.00;100761.03;5084378;28;20020;-70
2022/09/10 06:24:18;;;;;;;16.30;6.43;;;;;;;15.88;100.00;100763.66;5086158;28;20052;-70
2022/09/10 06:26:46;;;;;;;15.95;6.50;;;;;;;15.90;100.00;100772.47;5074882;28;20028;-69
2022/09/10 06:29:12;;;;;;;15.88;6.60;;;;;;;15.92;100.00;100766.25;5072972;28;20042;-67
2022/09/10 06:31:37;;;;;;;16.42;7.38;;;;;;;15.95;100.00;100774.22;5071405;28;20028;-68
2022/09/10 06:34:02;;;;;;;13.00;5.82;;;;;;;16.01;100.00;100773.28;5074238;28;20108;-71
2022/09/10 06:36:29;;;;;;;11.70;5.55;;;;;;;16.05;100.00;100772.38;5072050;28;20020;-70
2022/09/10 06:38:57;;;;;;;13.75;5.45;;;;;;;16.11;100.00;100771.44;5073532;28;20028;-71
2022/09/10 06:41:23;;;;;;;9.18;5.03;;;;;;;16.13;100.00;100785.59;5073336;28;20036;-71
2022/09/10 06:43:49;;;;;;;10.02;4.78;;;;;;;16.13;100.00;100791.78;5070380;28;20124;-70
2022/09/10 06:46:17;;;;;;;11.90;4.30;;;;;;;16.17;100.00;100798.84;5074345;28;20515;-70
2022/09/10 06:48:42;;;;;;;13.85;4.35;;;;;;;16.19;100.00;100812.09;5073312;28;20476;-71
2022/09/10 06:51:09;;;;;;;13.32;4.25;;;;;;;16.22;100.00;100811.19;5072831;28;20020;-71
2022/09/10 06:53:35;;;;;;;11.05;5.07;;;;;;;16.27;100.00;100814.69;5086892;28;20060;-70
2022/09/10 06:56:02;;;;;;;12.52;4.20;;;;;;;16.30;100.00;100822.63;5084005;28;20036;-73
2022/09/10 06:58:30;;;;;;;9.40;4.57;;;;;;;16.34;100.00;100821.72;5073113;28;20032;-71
2022/09/10 07:00:55;;;;;;;9.63;4.32;;;;;;;16.38;100.00;100818.13;5054573;28;20035;-68
2022/09/10 07:03:21;;;;;;;7.75;4.30;;;;;;;16.43;100.00;100821.66;5073623;28;20028;-68
2022/09/10 07:05:47;;;;;;;9.45;4.07;;;;;;;16.47;100.00;100815.41;5071396;28;20105;-69
2022/09/10 07:08:15;;;;;;;9.38;4.00;;;;;;;16.47;100.00;100818.06;5071568;28;20048;-68
2022/09/10 07:10:43;;;;;;;13.68;4.40;;;;;;;16.45;100.00;100819.84;5073849;28;20134;-70
2022/09/10 07:13:09;;;;;;;11.43;3.90;;;;;;;16.49;100.00;100826.03;5069421;28;20024;-69
2022/09/10 07:15:35;;;;;;;9.55;3.88;;;;;;;16.50;100.00;100828.66;5074255;28;20052;-69
2022/09/10 07:18:00;;;;;;;10.52;4.28;;;;;;;16.51;100.00;100830.44;5071296;28;20071;-69
2022/09/10 07:20:27;;;;;;;5.60;3.33;;;;;;;16.53;100.00;100830.41;5072214;28;20032;-69
2022/09/10 07:22:54;;;;;;;11.23;3.70;;;;;;;16.52;100.00;100842.81;5073377;28;20391;-69
2022/09/10 07:25:20;;;;;;;4.13;2.70;;;;;;;16.55;100.00;100849.00;5069970;28;20549;-68
2022/09/10 07:27:46;;;;;;;9.55;3.22;;;;;;;16.58;100.00;100843.69;5069307;28;20020;-70
2022/09/10 07:30:12;;;;;;;11.60;3.00;;;;;;;16.63;100.00;100855.13;5073428;28;20465;-69
2022/09/10 07:32:39;;;;;;;6.80;2.65;;;;;;;16.70;100.00;100851.53;5087340;28;20675;-69
2022/09/10 07:35:06;;;;;;;9.35;2.60;;;;;;;16.85;100.00;100861.16;5071653;28;20870;-69
2022/09/10 07:37:31;;;;;;;10.32;2.92;;;;;;;16.96;100.00;100861.09;5078621;28;20074;-69
2022/09/10 07:39:57;;;;;;;8.35;2.88;;;;;;;17.07;100.00;100866.31;5075987;28;20024;-69
2022/09/10 07:42:24;;;;;;;27.17;13.18;;;;;;;16.96;100.00;100882.34;5074172;28;20103;-68
2022/09/10 07:44:49;;;;;;;28.10;13.85;;;;;;;16.73;100.00;100886.03;5072139;28;20024;-68
2022/09/10 07:47:15;;;;;;;31.80;13.98;;;;;;;16.62;100.00;100890.56;5072881;28;20034;-69
2022/09/10 07:49:40;;;;;;;28.13;14.32;;;;;;;16.54;100.00;100893.28;5073235;28;20526;-68
2022/09/10 07:52:06;;;;;;;33.40;16.30;;;;;;;16.46;100.00;100895.97;5071489;28;20594;-68
2022/09/10 07:54:31;;;;;;;36.35;16.70;;;;;;;16.39;100.00;100904.91;5072072;28;20078;-69
2022/09/10 07:56:57;;;;;;;40.30;17.60;;;;;;;16.43;100.00;100898.66;5072887;28;20020;-69
2022/09/10 07:59:22;;;;;;;47.45;18.02;;;;;;;16.48;100.00;100899.53;5085718;28;20047;-68
2022/09/10 08:01:49;;;;;;;43.10;18.33;;;;;;;16.53;100.00;100904.78;5073198;28;20028;-69
2022/09/10 08:04:15;;;;;;;46.22;19.83;;;;;;;16.57;100.00;100909.19;5072847;28;20028;-68
2022/09/10 08:06:40;;;;;;;49.25;19.52;;;;;;;16.54;100.00;100911.88;5069254;28;20052;-70
2022/09/10 08:09:06;;;;;;;47.70;19.95;;;;;;;16.58;100.00;100920.72;5051956;28;20029;-69
2022/09/10 08:11:33;;;;;;;49.88;18.85;;;;;;;16.64;100.00;100916.25;5034157;28;20032;-69
2022/09/10 08:13:59;;;;;;;39.42;17.65;;;;;;;16.63;100.00;100924.19;5052185;28;20499;-69
2022/09/10 08:16:26;;;;;;;45.13;19.77;;;;;;;16.66;100.00;100926.84;5051961;28;20465;-68
2022/09/10 08:18:56;;;;;;;41.55;19.20;;;;;;;16.70;100.00;100931.25;5053109;28;20104;-68
2022/09/10 08:21:23;;;;;;;37.90;17.92;;;;;;;16.76;100.00;100936.50;5070946;28;20030;-69
2022/09/10 08:23:50;;;;;;;36.58;17.92;;;;;;;16.86;100.00;100943.53;5054203;28;20025;-67
2022/09/10 08:26:16;;;;;;;36.17;17.63;;;;;;;16.99;100.00;100949.63;5050224;28;20404;-66
2022/09/10 08:28:46;;;;;;;33.78;18.27;;;;;;;17.02;100.00;100946.97;5049268;28;20029;-67
2022/09/10 08:31:13;;;;;;;35.58;18.55;;;;;;;17.09;100.00;100961.09;5053101;28;20036;-68
2022/09/10 08:33:39;;;;;;;25.05;17.38;;;;;;;17.12;100.00;100966.38;5053663;28;20028;-68
2022/09/10 08:36:06;;;;;;;27.92;15.88;;;;;;;17.08;100.00;100956.69;5052382;28;20032;-69
2022/09/10 08:38:34;;;;;;;23.15;13.60;;;;;;;16.97;100.00;100975.38;5052535;28;20048;-68
2022/09/10 08:41:06;;;;;;;18.48;12.15;;;;;;;16.99;100.00;100978.88;5049908;28;20104;-69
2022/09/10 08:43:58;;;;;;;21.60;12.40;;;;;;;16.99;100.00;100980.66;5034438;28;20461;-69
2022/09/10 08:46:28;;;;;;;16.15;11.05;;;;;;;17.02;100.00;100986.84;5011330;28;20047;-68
2022/09/10 08:49:09;;;;;;;19.40;10.85;;;;;;;17.06;100.00;100992.13;5047970;28;20082;-67
2022/09/10 08:52:02;;;;;;;17.60;9.50;;;;;;;17.10;100.00;100988.56;5052395;28;20029;-67
2022/09/10 08:54:36;;;;;;;11.68;8.43;;;;;;;17.24;100.00;100991.09;5011221;28;20069;-68
2022/09/10 08:57:05;;;;;;;15.25;8.55;;;;;;;17.15;100.00;100998.25;5061617;28;20021;-69
2022/09/10 08:59:43;;;;;;;7.90;5.75;;;;;;;17.17;100.00;100998.25;5052106;28;20029;-69
2022/09/10 09:02:21;;;;;;;8.77;6.13;;;;;;;17.22;100.00;101007.06;5052536;28;20476;-68
2022/09/10 09:04:57;;;;;;;9.75;6.53;;;;;;;17.25;100.00;101004.38;5050299;28;21933;-68
2022/09/10 09:07:23;;;;;;;13.82;7.47;;;;;;;17.27;100.00;101009.69;5055610;28;20045;-69
2022/09/10 09:09:50;;;;;;;15.10;8.75;;;;;;;17.32;100.00;101007.88;5052721;28;20021;-69
2022/09/10 09:12:25;;;;;;;15.00;8.27;;;;;;;17.40;100.00;101011.34;5055895;28;20048;-69
2022/09/10 09:15:09;;;;;;;16.30;8.63;;;;;;;17.48;100.00;101016.59;5055772;28;20040;-69
2022/09/10 09:17:34;;;;;;;9.45;6.45;;;;;;;17.54;100.00;101027.19;5056421;28;20056;-69
2022/09/10 09:20:14;;;;;;;10.85;6.60;;;;;;;17.62;100.00;101022.69;5056045;28;20040;-68
2022/09/10 09:22:42;;;;;;;9.27;6.35;;;;;;;17.71;100.00;101027.00;5058875;28;20044;-68
2022/09/10 09:25:19;;;;;;;10.55;6.53;;;;;;;17.72;100.00;101026.13;5059259;28;20385;-69
2022/09/10 09:27:46;;;;;;;8.65;6.50;;;;;;;17.90;100.00;101034.81;5055908;28;20082;-68
2022/09/10 09:30:21;;;;;;;11.63;6.15;;;;;;;17.97;100.00;101031.22;5027857;28;20510;-70
2022/09/10 09:32:47;;;;;;;14.00;7.15;;;;;;;18.02;100.00;101035.59;5054204;28;20026;-70
2022/09/10 09:35:37;;;;;;;7.78;4.80;;;;;;;18.27;100.00;101039.75;5052760;28;20166;-69
2022/09/10 09:38:05;;;;;;;4.60;4.18;;;;;;;18.51;100.00;101038.56;5044813;28;20099;-69
2022/09/10 09:40:44;;;;;;;6.20;4.75;;;;;;;18.59;100.00;101044.66;5046492;28;20036;-68
2022/09/10 09:43:14;;;;;;;11.82;4.97;;;;;;;18.62;100.00;101041.94;5039353;28;20036;-68
2022/09/10 09:45:44;;;;;;;6.43;4.85;;;;;;;18.74;100.00;101040.91;5052746;28;20117;-69
2022/09/10 09:48:15;;;;;;;6.38;4.30;;;;;;;18.76;100.00;101044.44;5028883;28;20103;-68
2022/09/10 09:50:46;;;;;;;5.03;3.83;;;;;;;18.80;100.00;101053.25;5051276;28;20507;-69
2022/09/10 09:53:21;;;;;;;5.22;3.55;;;;;;;18.76;100.00;101057.78;5047857;28;20032;-69
2022/09/10 09:55:50;;;;;;;6.13;4.30;;;;;;;18.93;100.00;101067.34;5042712;28;20029;-69
2022/09/10 09:58:30;;;;;;;4.55;3.40;;;;;;;19.16;100.00;101067.88;5051114;28;20029;-69
2022/09/10 10:01:02;;;;;;;7.05;4.60;;;;;;;19.03;100.00;101066.28;5047625;28;20029;-70
2022/09/10 10:03:29;;;;;;;5.38;3.97;;;;;;;18.97;100.00;101069.06;5054361;28;20464;-69
2022/09/10 10:06:10;;;;;;;4.72;3.40;;;;;;;18.97;100.00;101077.06;5051702;28;20369;-69
2022/09/10 10:08:39;;;;;;;6.10;3.42;;;;;;;19.05;100.00;101072.50;5073139;28;20073;-68
2022/09/10 10:11:06;;;;;;;6.75;3.40;;;;;;;19.08;100.00;101079.56;5074241;28;20360;-68
2022/09/10 10:13:37;;;;;;;5.82;3.70;;;;;;;19.09;100.00;101082.22;5076155;28;20035;-68
2022/09/10 10:16:22;;;;;;;6.13;4.63;;;;;;;19.22;100.00;101074.88;5074396;28;20027;-69
2022/09/10 10:18:49;;;;;;;7.40;4.72;;;;;;;19.62;100.00;101076.91;5072529;28;20035;-68
2022/09/10 10:21:35;;;;;;;7.55;4.72;;;;;;;19.94;100.00;101079.94;5074879;28;20426;-68
2022/09/10 10:24:02;;;;;;;5.40;3.92;;;;;;;20.09;100.00;101081.44;5068620;28;20025;-68
2022/09/10 10:26:33;;;;;;;6.63;4.80;;;;;;;20.12;100.00;101086.75;5074316;28;20384;-68
2022/09/10 10:29:05;;;;;;;5.57;3.88;;;;;;;19.84;100.00;101095.25;5054992;28;20481;-79
2022/09/10 10:31:42;;;;;;;7.15;4.70;;;;;;;19.60;100.00;101105.44;5070657;28;20070;-69
2022/09/10 10:34:08;;;;;;;6.95;4.90;;;;;;;19.26;100.00;101103.31;5070371;28;20032;-68
2022/09/10 10:37:13;;;;;;;6.73;4.80;;;;;;;19.11;100.00;101101.72;5071502;28;20020;-69
2022/09/10 10:40:05;;;;;;;8.82;5.78;;;;;;;19.38;100.00;101112.91;5075904;28;20687;-67
2022/09/10 10:42:41;;;;;;;12.32;5.97;;;;;;;19.74;100.00;101107.88;5069126;28;20029;-66
2022/09/10 10:45:07;;;;;;;9.52;5.78;;;;;;;20.13;100.00;101102.75;5074252;28;20146;-67
2022/09/10 10:47:47;;;;;;;11.65;6.38;;;;;;;20.33;100.00;101114.81;5053535;28;20173;-67
2022/09/10 10:50:21;;;;;;;6.85;5.15;;;;;;;20.24;100.00;101125.69;5055737;28;20107;-67
2022/09/10 10:53:10;;;;;;;6.53;5.35;;;;;;;20.06;100.00;101127.78;5074002;28;20476;-67
2022/09/10 10:55:44;;;;;;;9.00;5.32;;;;;;;19.77;100.00;101120.28;5074080;28;20028;-68
2022/09/10 10:58:35;;;;;;;7.45;5.13;;;;;;;19.60;100.00;101124.13;5073819;28;20020;-68
2022/09/10 11:01:25;;;;;;;9.02;5.57;;;;;;;19.62;100.00;101132.09;5066666;28;20026;-68
2022/09/10 11:03:55;;;;;;;8.35;4.97;;;;;;;19.65;100.00;101132.03;5053887;28;20484;-67
2022/09/10 11:06:26;;;;;;;10.13;5.28;;;;;;;19.61;100.00;101138.34;5073521;28;20553;-67
2022/09/10 11:09:01;;;;;;;8.40;6.03;;;;;;;19.85;100.00;101148.63;5072929;28;20032;-69
2022/09/10 11:11:33;;;;;;;8.02;4.65;;;;;;;20.32;100.00;101146.03;5072229;28;20033;-68
2022/09/10 11:14:37;;;;;;;10.98;4.75;;;;;;;20.92;100.00;101145.72;5073933;28;20033;-70
2022/09/10 11:17:12;;;;;;;7.68;3.83;;;;;;;21.44;100.00;101149.03;5054000;28;20055;-69
2022/09/10 11:19:43;;;;;;;6.78;3.22;;;;;;;21.76;100.00;101144.69;5073825;28;20353;-69